Time;durP1;ratioP1;P1;durP2;ratioP2;P2;SDS_P1;SDS_P2;PMS_P1;PMS_P2;Temp;Humidity;BMP_temperature;BMP_pressure;BME280_temperature;BME280_humidity;BME280_pressure;Samples;Min_cycle;Max_cycle;Signal;HPM_P1;HPM_P2
2022/05/14 00:01:02;;;;;;;4.83;3.60;;;;;;;17.18;49.57;99087.31;4991408;28;20102;-93
2022/05/14 00:03:32;;;;;;;7.70;3.90;;;;;;;17.19;49.81;99083.47;5008483;28;20489;-93
2022/05/14 00:06:08;;;;;;;13.00;4.25;;;;;;;17.11;49.70;99081.56;4991913;28;20030;-93
2022/05/14 00:08:35;;;;;;;7.32;3.70;;;;;;;16.98;50.00;99077.88;4991679;28;20485;-92
2022/05/14 00:13:49;;;;;;;23.52;4.25;;;;;;;17.04;49.91;99081.25;4990131;28;20417;-92
2022/05/14 00:16:16;;;;;;;7.97;3.95;;;;;;;16.94;49.98;99072.25;4991460;28;20019;-93
2022/05/14 00:18:41;;;;;;;10.70;4.15;;;;;;;16.90;50.49;99075.94;4975459;28;20181;-92
2022/05/14 00:21:07;;;;;;;5.63;3.90;;;;;;;16.84;50.67;99071.75;4991567;28;20074;-92
2022/05/14 00:23:32;;;;;;;9.25;4.28;;;;;;;16.72;51.02;99070.41;4975314;28;20058;-93
2022/05/14 00:25:59;;;;;;;9.45;3.95;;;;;;;16.65;51.60;99069.31;4975256;28;20519;-92
2022/05/14 00:28:24;;;;;;;8.73;4.50;;;;;;;16.67;51.62;99072.50;4991747;28;20496;-92
2022/05/14 00:30:50;;;;;;;7.95;3.90;;;;;;;16.60;51.87;99066.72;4991562;28;20027;-92
2022/05/14 00:33:15;;;;;;;9.65;3.88;;;;;;;16.46;50.84;99056.78;4974766;28;20121;-92
2022/05/14 00:35:41;;;;;;;8.65;4.05;;;;;;;16.41;51.34;99061.53;4974880;28;20023;-92
2022/05/14 00:38:08;;;;;;;10.27;4.10;;;;;;;16.36;51.44;99066.00;4974978;28;20034;-92
2022/05/14 00:40:59;;;;;;;8.23;4.20;;;;;;;16.42;51.94;99084.91;4991453;28;20037;-92
2022/05/14 00:43:26;;;;;;;5.33;4.23;;;;;;;16.13;52.24;99059.84;4991550;28;20105;-93
2022/05/14 00:46:19;;;;;;;8.27;4.25;;;;;;;16.21;52.39;99076.47;4990867;28;20684;-91
2022/05/14 00:48:46;;;;;;;13.35;4.85;;;;;;;16.10;52.41;99065.09;4974942;28;20104;-92
2022/05/14 00:51:13;;;;;;;8.38;4.60;;;;;;;16.09;52.51;99068.94;4975018;28;20042;-92
2022/05/14 00:53:47;;;;;;;16.73;5.20;;;;;;;16.03;52.86;99067.47;4974833;28;20091;-92
2022/05/14 00:56:17;;;;;;;8.95;4.45;;;;;;;15.86;53.36;99058.13;5006289;28;20066;-92
2022/05/14 00:58:48;;;;;;;9.00;4.65;;;;;;;15.93;53.10;99061.19;5007242;28;20496;-93
2022/05/14 01:01:15;;;;;;;7.10;4.53;;;;;;;15.86;53.57;99063.53;5006917;28;20492;-93
2022/05/14 01:03:41;;;;;;;10.02;4.68;;;;;;;15.81;53.85;99071.00;4991145;28;20058;-92
2022/05/14 01:06:08;;;;;;;10.82;5.05;;;;;;;15.82;53.83;99072.63;4991164;28;20485;-92
2022/05/14 01:08:34;;;;;;;9.10;4.75;;;;;;;15.78;53.90;99063.50;4990657;28;20030;-92
2022/05/14 01:11:00;;;;;;;9.50;5.13;;;;;;;15.86;53.80;99073.63;4990778;28;20023;-92
2022/05/14 01:13:28;;;;;;;9.02;5.60;;;;;;;15.88;53.68;99074.91;4974509;28;20038;-93
2022/05/14 01:15:56;;;;;;;13.25;5.00;;;;;;;15.81;53.89;99062.88;4974568;28;20026;-92
2022/05/14 01:18:23;;;;;;;9.10;5.32;;;;;;;15.78;53.91;99071.66;4990416;28;20031;-92
2022/05/14 01:21:16;;;;;;;9.13;5.30;;;;;;;15.90;54.16;99085.44;4990403;28;20122;-92
2022/05/14 01:26:36;;;;;;;7.40;4.45;;;;;;;15.78;54.16;99074.34;4988575;28;20050;-92
2022/05/14 01:29:04;;;;;;;11.57;4.50;;;;;;;15.73;54.19;99064.44;4974642;28;20044;-92
2022/05/14 01:31:30;;;;;;;9.32;4.55;;;;;;;15.68;53.88;99050.94;4974486;28;20118;-92
2022/05/14 01:34:00;;;;;;;11.35;5.07;;;;;;;15.72;54.04;99073.69;4990425;28;20031;-92
2022/05/14 01:36:27;;;;;;;10.40;4.75;;;;;;;15.63;53.69;99059.22;4990472;28;20039;-91
2022/05/14 01:38:55;;;;;;;10.35;4.70;;;;;;;15.64;53.76;99063.53;4974047;28;20121;-92
2022/05/14 01:41:21;;;;;;;7.53;4.97;;;;;;;15.49;54.23;99049.22;4990183;28;20023;-92
2022/05/14 01:43:46;;;;;;;7.63;4.70;;;;;;;15.51;54.42;99057.06;4974087;28;20130;-91
2022/05/14 01:46:13;;;;;;;6.68;4.57;;;;;;;15.44;54.12;99043.13;4989508;28;20035;-91
2022/05/14 01:48:39;;;;;;;12.32;4.45;;;;;;;15.45;54.17;99042.81;4989647;28;20101;-92
2022/05/14 01:51:05;;;;;;;6.38;4.55;;;;;;;15.52;54.14;99043.19;4991162;28;20027;-92
2022/05/14 01:53:30;;;;;;;11.50;5.25;;;;;;;15.53;54.05;99052.94;4990489;28;20039;-92
2022/05/14 01:55:57;;;;;;;9.48;5.13;;;;;;;15.48;54.06;99055.78;4990129;28;20029;-92
2022/05/14 01:58:38;;;;;;;6.15;5.28;;;;;;;15.43;54.25;99041.53;4989902;28;20456;-92
2022/05/14 02:01:22;;;;;;;7.82;4.80;;;;;;;15.51;54.84;99060.56;4975907;28;20033;-92
2022/05/14 02:03:56;;;;;;;10.95;5.15;;;;;;;15.43;54.75;99057.81;4973812;28;20101;-91
2022/05/14 02:06:23;;;;;;;9.55;5.80;;;;;;;15.44;54.59;99051.25;4989909;28;20469;-92
2022/05/14 02:08:51;;;;;;;13.45;5.00;;;;;;;15.41;54.86;99049.97;4973646;28;20047;-92
2022/05/14 02:11:16;;;;;;;9.70;5.30;;;;;;;15.34;55.17;99038.75;4990019;28;20030;-92
2022/05/14 02:13:42;;;;;;;14.90;4.95;;;;;;;15.38;54.74;99038.94;4989865;28;20034;-92
2022/05/14 02:16:09;;;;;;;13.68;5.95;;;;;;;15.52;53.96;99037.78;4973677;28;20070;-92
2022/05/14 02:18:35;;;;;;;16.50;6.35;;;;;;;15.58;53.98;99052.00;4989766;28;20030;-92
2022/05/14 02:21:00;;;;;;;12.60;6.30;;;;;;;15.70;52.09;99052.22;4989257;28;20035;-91
2022/05/14 02:23:27;;;;;;;11.02;5.22;;;;;;;15.74;51.54;99049.75;5005671;28;20477;-92
2022/05/14 02:25:53;;;;;;;7.35;4.72;;;;;;;15.76;51.26;99039.38;5005805;28;20408;-92
2022/05/14 02:28:20;;;;;;;8.82;4.50;;;;;;;15.83;51.31;99055.22;4989316;28;20030;-91
2022/05/14 02:30:46;;;;;;;5.38;4.00;;;;;;;15.81;51.24;99047.38;4972998;28;20031;-92
2022/05/14 02:33:14;;;;;;;9.05;4.00;;;;;;;15.87;50.62;99042.63;4989236;28;20089;-92
2022/05/14 02:35:40;;;;;;;6.82;4.30;;;;;;;15.81;52.71;99046.56;4989082;28;20030;-91
2022/05/14 02:38:06;;;;;;;7.38;4.18;;;;;;;15.68;52.90;99037.38;4988701;28;20027;-91
2022/05/14 02:40:33;;;;;;;7.93;4.10;;;;;;;15.59;52.58;99042.75;4989037;28;20117;-91
2022/05/14 02:42:59;;;;;;;6.50;4.20;;;;;;;15.50;52.84;99042.72;4989219;28;20189;-92
2022/05/14 02:45:26;;;;;;;8.15;3.78;;;;;;;15.55;52.88;99055.34;4989279;28;20121;-91
2022/05/14 02:47:53;;;;;;;7.40;4.30;;;;;;;15.45;53.74;99064.53;4972305;28;20042;-92
2022/05/14 02:50:19;;;;;;;9.80;4.15;;;;;;;15.25;53.98;99046.00;4988658;28;20039;-91
2022/05/14 02:52:44;;;;;;;6.97;4.38;;;;;;;15.24;54.18;99053.34;4988820;28;20113;-91
2022/05/14 02:55:11;;;;;;;6.53;4.13;;;;;;;15.21;54.63;99061.31;4972488;28;20147;-92
2022/05/14 02:57:36;;;;;;;8.60;4.80;;;;;;;15.00;55.18;99042.78;4988749;28;20054;-91
2022/05/14 03:00:03;;;;;;;10.90;6.10;;;;;;;15.01;55.30;99044.41;4988596;28;20081;-91
2022/05/14 03:02:29;;;;;;;9.02;4.43;;;;;;;14.95;55.47;99042.91;4988177;28;20047;-91
2022/05/14 03:04:55;;;;;;;7.53;4.78;;;;;;;14.98;55.91;99060.47;4972493;28;20031;-90
2022/05/14 03:07:22;;;;;;;9.30;4.50;;;;;;;14.84;55.90;99049.69;4956627;28;20042;-91
2022/05/14 03:09:47;;;;;;;12.95;4.88;;;;;;;14.90;56.03;99051.97;4972550;28;20027;-91
2022/05/14 03:12:14;;;;;;;9.30;4.63;;;;;;;14.85;55.70;99054.78;4972445;28;20026;-91
2022/05/14 03:14:40;;;;;;;9.95;4.70;;;;;;;14.74;56.07;99040.66;4988634;28;20039;-91
2022/05/14 03:17:07;;;;;;;5.35;4.53;;;;;;;14.87;56.00;99041.72;4988092;28;20066;-91
2022/05/14 03:19:34;;;;;;;7.80;4.75;;;;;;;14.87;56.00;99057.19;4988105;28;20039;-91
2022/05/14 03:22:01;;;;;;;11.05;5.85;;;;;;;14.89;56.33;99049.56;4988083;28;20050;-92
2022/05/14 03:24:27;;;;;;;10.43;5.57;;;;;;;14.84;56.67;99058.59;4988750;28;20480;-92
2022/05/14 03:26:52;;;;;;;9.07;5.78;;;;;;;14.84;56.63;99071.34;4972837;28;20121;-92
2022/05/14 03:29:18;;;;;;;14.13;6.57;;;;;;;14.78;56.81;99064.44;4988382;28;20039;-91
2022/05/14 03:31:47;;;;;;;15.70;7.50;;;;;;;14.74;56.63;99059.63;4972299;28;20538;-90
2022/05/14 03:34:12;;;;;;;22.73;12.20;;;;;;;14.84;56.67;99061.31;4988315;28;20026;-89
2022/05/14 03:37:01;;;;;;;11.60;7.35;;;;;;;14.86;56.30;99058.31;4988170;28;20128;-92
2022/05/14 03:39:26;;;;;;;16.73;7.30;;;;;;;14.94;55.93;99066.50;4964935;28;20039;-91
2022/05/14 03:41:52;;;;;;;15.45;6.40;;;;;;;15.05;56.23;99069.00;4952270;28;20102;-90
2022/05/14 03:44:20;;;;;;;11.38;5.93;;;;;;;15.05;56.37;99069.00;4936083;29;20440;-90
2022/05/14 03:46:46;;;;;;;12.77;6.07;;;;;;;15.08;56.47;99073.81;4936060;29;20122;-90
2022/05/14 03:49:14;;;;;;;10.32;5.57;;;;;;;15.08;56.55;99071.09;4935858;29;20035;-90
2022/05/14 03:51:40;;;;;;;10.73;5.93;;;;;;;15.26;56.35;99085.59;4951295;29;20039;-90
2022/05/14 03:54:05;;;;;;;11.40;5.50;;;;;;;15.30;56.04;99073.84;4919957;29;20039;-90
2022/05/14 03:56:31;;;;;;;37.88;7.07;;;;;;;15.41;56.19;99082.53;4935917;29;20043;-90
2022/05/14 03:58:57;;;;;;;9.02;6.18;;;;;;;15.40;56.14;99085.53;4935868;29;20616;-91
2022/05/14 04:01:23;;;;;;;9.60;4.95;;;;;;;15.66;54.94;99096.59;4920161;29;20038;-91
2022/05/14 04:03:50;;;;;;;10.85;5.00;;;;;;;15.68;54.86;99097.88;4951706;28;20042;-91
2022/05/14 04:06:16;;;;;;;10.30;5.10;;;;;;;15.72;54.76;99093.47;4935802;29;20031;-92
2022/05/14 04:08:43;;;;;;;10.32;5.75;;;;;;;15.88;55.10;99112.91;4952274;28;20119;-91
2022/05/14 04:11:08;;;;;;;9.27;5.60;;;;;;;15.95;54.34;99107.03;4983751;28;20047;-91
2022/05/14 04:13:35;;;;;;;20.90;5.72;;;;;;;16.02;53.38;99099.25;4991560;28;20114;-91
2022/05/14 04:16:01;;;;;;;10.20;5.05;;;;;;;16.27;52.24;99108.66;4991217;28;20027;-92
2022/05/14 04:18:27;;;;;;;7.72;5.20;;;;;;;16.19;53.03;99095.84;4991545;28;20026;-90
2022/05/14 04:20:58;;;;;;;11.98;5.10;;;;;;;16.43;53.11;99119.09;4991056;28;20062;-91
2022/05/14 04:23:25;;;;;;;11.93;5.80;;;;;;;16.32;53.16;99099.56;5007382;28;20054;-91
2022/05/14 04:25:52;;;;;;;29.02;7.35;;;;;;;16.38;52.79;99111.09;4990741;28;20050;-87
2022/05/14 04:28:18;;;;;;;18.63;6.85;;;;;;;16.47;52.80;99109.19;4990842;28;20158;-90
2022/05/14 04:30:44;;;;;;;21.08;7.38;;;;;;;16.58;51.68;99118.69;4990914;28;20023;-91
2022/05/14 04:33:12;;;;;;;17.60;6.85;;;;;;;16.68;52.04;99120.31;4974836;28;20026;-90
2022/05/14 04:35:38;;;;;;;11.80;6.40;;;;;;;16.70;53.01;99112.63;4991064;28;20049;-91
2022/05/14 04:38:05;;;;;;;17.50;7.35;;;;;;;16.72;53.02;99121.28;4974345;28;20057;-91
2022/05/14 04:40:30;;;;;;;10.73;6.50;;;;;;;16.80;53.13;99117.00;4990625;28;20034;-91
2022/05/14 04:42:56;;;;;;;13.00;7.32;;;;;;;16.91;52.66;99115.59;4990720;28;20026;-91
2022/05/14 04:45:22;;;;;;;13.00;7.20;;;;;;;16.95;52.66;99116.56;4990638;28;20027;-91
2022/05/14 04:47:47;;;;;;;20.98;8.23;;;;;;;16.90;53.19;99114.00;4990244;28;20501;-91
2022/05/14 04:50:14;;;;;;;45.63;10.05;;;;;;;17.06;52.94;99133.41;4974207;28;20085;-90
2022/05/14 04:52:40;;;;;;;18.98;7.78;;;;;;;17.15;52.72;99134.22;4975412;28;20460;-90
2022/05/14 04:55:08;;;;;;;10.82;7.13;;;;;;;17.14;52.20;99113.56;5006874;28;20074;-90
2022/05/14 04:57:35;;;;;;;16.55;7.25;;;;;;;17.27;52.28;99123.50;4995947;28;20026;-93
2022/05/14 05:00:01;;;;;;;21.15;6.90;;;;;;;17.24;52.21;99120.59;4996189;28;20114;-96
2022/05/14 05:05:12;;;;;;;10.10;5.43;;;;;;;17.37;51.15;99108.78;4976111;28;20495;-95
2022/05/14 05:07:37;;;;;;;9.93;5.20;;;;;;;17.51;48.99;99114.84;4976749;28;20023;-95
2022/05/14 05:10:05;;;;;;;11.35;4.85;;;;;;;17.73;48.55;99121.25;4992840;28;20088;-95
2022/05/14 05:12:33;;;;;;;9.50;4.22;;;;;;;17.85;47.89;99135.06;4992408;28;20084;-95
2022/05/14 05:14:59;;;;;;;7.30;4.80;;;;;;;17.84;48.32;99119.03;4990924;28;20046;-90
2022/05/14 05:17:24;;;;;;;12.27;6.10;;;;;;;17.76;50.81;99121.41;4990413;28;20118;-90
2022/05/14 05:19:50;;;;;;;9.40;5.72;;;;;;;17.84;50.57;99125.25;4973935;28;20027;-90
2022/05/14 05:22:15;;;;;;;14.82;6.00;;;;;;;17.82;51.21;99132.13;4990130;28;20054;-89
2022/05/14 05:24:41;;;;;;;25.27;7.00;;;;;;;17.77;51.22;99127.66;5006520;28;20129;-90
2022/05/14 05:27:06;;;;;;;21.85;7.28;;;;;;;17.93;50.99;99136.16;4990411;28;20031;-89
2022/05/14 05:29:41;;;;;;;17.95;7.18;;;;;;;18.07;50.84;99146.84;4975090;28;20117;-89
2022/05/14 05:32:07;;;;;;;13.27;6.47;;;;;;;18.11;50.45;99142.38;4990174;28;20031;-90
2022/05/14 05:34:37;;;;;;;10.57;6.00;;;;;;;18.14;50.29;99144.47;4974210;28;20037;-90
2022/05/14 05:37:02;;;;;;;15.43;6.22;;;;;;;18.07;49.85;99127.78;4975029;28;20408;-90
2022/05/14 05:39:28;;;;;;;17.02;7.63;;;;;;;17.96;50.20;99135.50;4973662;28;20031;-89
2022/05/14 05:41:58;;;;;;;13.48;7.07;;;;;;;17.96;51.32;99154.56;4989957;28;20077;-90
2022/05/14 05:44:25;;;;;;;16.73;8.55;;;;;;;17.94;52.57;99154.09;4990247;28;20468;-90
2022/05/14 05:46:51;;;;;;;10.20;6.88;;;;;;;17.94;51.68;99163.06;4989212;28;20023;-89
2022/05/14 05:49:17;;;;;;;25.25;11.10;;;;;;;17.96;50.96;99169.00;4989116;28;20030;-90
2022/05/14 05:51:44;;;;;;;18.35;7.35;;;;;;;18.03;49.37;99178.59;4956469;28;20118;-90
2022/05/14 05:56:57;;;;;;;12.38;6.00;;;;;;;18.14;50.21;99213.38;4987954;28;20090;-90
2022/05/14 05:59:24;;;;;;;27.08;6.60;;;;;;;18.27;51.05;99248.94;4989422;28;20026;-92
2022/05/14 06:02:06;;;;;;;33.85;9.52;;;;;;;18.21;55.42;99259.22;5007346;28;20042;-93
2022/05/14 06:04:58;;;;;;;19.90;6.80;;;;;;;18.02;60.99;99239.69;4989658;28;20190;-89
2022/05/14 06:07:25;;;;;;;35.30;10.70;;;;;;;17.77;68.20;99245.56;4984799;28;20050;-92
2022/05/14 06:09:51;;;;;;;24.42;9.00;;;;;;;17.29;68.48;99234.75;4989614;28;20027;-91
2022/05/14 06:12:16;;;;;;;24.33;9.68;;;;;;;17.18;70.75;99253.28;4972806;28;20041;-91
2022/05/14 06:14:43;;;;;;;35.33;12.63;;;;;;;17.11;70.70;99258.38;4989319;28;20495;-90
2022/05/14 06:17:10;;;;;;;24.10;11.10;;;;;;;17.15;70.36;99262.88;4989110;28;20041;-90
2022/05/14 06:19:37;;;;;;;17.48;9.60;;;;;;;17.04;69.25;99250.69;4973495;28;20038;-91
2022/05/14 06:22:04;;;;;;;21.25;9.32;;;;;;;17.06;69.14;99274.88;4989357;28;20058;-90
2022/05/14 06:24:30;;;;;;;24.50;10.50;;;;;;;16.86;72.67;99282.44;4990111;28;20035;-90
2022/05/14 06:26:56;;;;;;;16.63;10.73;;;;;;;16.81;73.62;99279.88;4989312;28;20087;-90
2022/05/14 06:29:21;;;;;;;16.33;9.82;;;;;;;16.75;70.86;99271.00;4989845;28;20062;-92
2022/05/14 06:31:48;;;;;;;19.13;10.63;;;;;;;16.88;72.15;99285.66;4988442;28;20042;-91
2022/05/14 06:34:43;;;;;;;20.80;12.07;;;;;;;16.81;73.64;99285.31;4973000;28;20041;-92
2022/05/14 06:37:09;;;;;;;17.25;11.55;;;;;;;16.82;75.05;99280.66;4966991;28;20043;-91
2022/05/14 06:39:36;;;;;;;23.25;13.73;;;;;;;16.93;75.90;99307.28;4971464;28;20039;-91
2022/05/14 06:42:47;;;;;;;25.13;14.40;;;;;;;16.98;76.15;99343.63;4939889;28;20043;-90
2022/05/14 06:45:46;;;;;;;24.38;13.45;;;;;;;17.09;75.72;99353.13;4972064;28;20519;-93
2022/05/14 06:48:14;;;;;;;23.67;13.48;;;;;;;16.87;75.30;99305.00;4964464;28;20045;-92
2022/05/14 06:50:47;;;;;;;26.25;15.15;;;;;;;16.82;77.29;99297.78;4955226;28;20058;-90
2022/05/14 06:53:15;;;;;;;33.95;19.80;;;;;;;16.79;76.92;99292.94;4974048;28;20078;-89
2022/05/14 06:55:41;;;;;;;59.17;44.10;;;;;;;16.68;75.70;99300.53;4991166;28;20035;-90
2022/05/14 06:58:08;;;;;;;28.92;16.95;;;;;;;16.77;74.64;99311.47;4988306;28;20035;-90
2022/05/14 07:00:35;;;;;;;24.55;16.38;;;;;;;16.82;74.50;99303.22;4966766;28;20030;-93
2022/05/14 07:08:32;;;;;;;24.25;14.93;;;;;;;17.06;72.02;99289.25;4963815;28;20097;-89
2022/05/14 07:10:58;;;;;;;21.55;11.88;;;;;;;17.20;69.93;99299.22;4975244;28;20124;-89
2022/05/14 07:13:24;;;;;;;19.25;10.75;;;;;;;17.33;70.11;99317.38;4975229;28;20512;-89
2022/05/14 07:15:50;;;;;;;22.58;14.00;;;;;;;17.31;73.55;99322.34;4975398;28;20030;-88
2022/05/14 07:18:16;;;;;;;13.88;10.48;;;;;;;17.28;71.96;99301.19;4992873;28;20062;-88
2022/05/14 07:20:42;;;;;;;15.38;9.88;;;;;;;17.47;69.18;99306.34;4991663;28;20412;-88
2022/05/14 07:23:09;;;;;;;14.10;11.15;;;;;;;17.63;69.18;99307.53;4990780;28;20050;-88
2022/05/14 07:25:35;;;;;;;18.85;14.55;;;;;;;17.66;70.11;99287.03;4975524;28;20030;-88
2022/05/14 07:28:00;;;;;;;31.08;23.63;;;;;;;17.47;71.75;99299.03;4991346;28;20089;-87
2022/05/14 07:30:27;;;;;;;22.70;18.00;;;;;;;17.58;72.03;99294.06;4975642;28;20516;-91
2022/05/14 07:32:52;;;;;;;21.80;16.52;;;;;;;17.77;71.76;99302.75;4991345;28;20029;-92
2022/05/14 07:35:19;;;;;;;17.70;14.63;;;;;;;18.04;70.85;99309.06;4959182;28;20042;-90
2022/05/14 07:37:47;;;;;;;15.63;11.88;;;;;;;18.12;69.75;99296.56;4992401;28;20592;-89
2022/05/14 07:40:21;;;;;;;14.70;9.93;;;;;;;18.26;69.57;99301.84;4959709;28;20110;-88
2022/05/14 07:42:50;;;;;;;13.63;10.52;;;;;;;18.20;70.52;99323.03;4976390;28;20030;-88
2022/05/14 07:45:33;;;;;;;15.10;9.23;;;;;;;18.24;68.70;99295.91;4995137;28;20088;-87
2022/05/14 07:48:00;;;;;;;13.18;8.52;;;;;;;18.40;68.75;99302.47;4963961;28;20030;-87
2022/05/14 07:50:26;;;;;;;11.60;7.78;;;;;;;18.33;69.59;99304.91;4978693;28;20034;-87
2022/05/14 07:52:54;;;;;;;13.45;8.63;;;;;;;18.45;69.91;99305.06;4994542;28;20034;-87
2022/05/14 07:55:20;;;;;;;17.10;9.65;;;;;;;18.51;69.25;99303.75;4996709;28;20392;-87
2022/05/14 07:57:46;;;;;;;13.68;10.50;;;;;;;18.47;69.08;99297.34;4994921;28;20064;-88
2022/05/14 08:00:14;;;;;;;14.88;12.52;;;;;;;18.72;68.25;99300.38;4995149;28;20030;-90
2022/05/14 08:02:42;;;;;;;18.45;13.40;;;;;;;18.89;67.92;99286.69;4995271;28;20027;-88
2022/05/14 08:05:09;;;;;;;12.25;9.48;;;;;;;19.00;65.60;99306.22;4962298;28;20085;-88
2022/05/14 08:07:35;;;;;;;20.95;11.48;;;;;;;19.17;67.57;99299.91;4963308;28;20030;-89
2022/05/14 08:10:00;;;;;;;25.95;13.23;;;;;;;19.31;69.85;99308.69;4978495;28;20124;-89
2022/05/14 08:12:31;;;;;;;27.42;12.27;;;;;;;19.44;69.11;99309.56;4961930;28;20030;-88
2022/05/14 08:14:57;;;;;;;24.15;11.02;;;;;;;19.64;67.36;99304.50;4962665;28;20132;-89
2022/05/14 08:17:26;;;;;;;25.02;12.75;;;;;;;19.84;67.59;99309.22;4977882;28;20045;-87
2022/05/14 08:19:54;;;;;;;27.38;12.40;;;;;;;19.91;66.68;99293.09;4993979;28;20061;-91
2022/05/14 08:28:56;;;;;;;23.17;13.88;;;;;;;20.27;65.82;99288.94;4973875;28;20035;-91
2022/05/14 08:31:30;;;;;;;19.48;12.48;;;;;;;20.26;65.86;99287.34;4978931;28;20117;-88
2022/05/14 08:34:05;;;;;;;18.67;12.27;;;;;;;20.44;64.64;99268.88;4976797;28;20424;-87
2022/05/14 08:36:30;;;;;;;23.88;12.65;;;;;;;20.78;65.14;99283.34;4994912;28;20026;-87
2022/05/14 08:38:56;;;;;;;23.63;13.25;;;;;;;21.08;66.08;99305.84;4977847;28;20045;-87
2022/05/14 08:41:22;;;;;;;28.83;12.88;;;;;;;21.08;65.00;99285.88;4993572;28;20042;-86
2022/05/14 08:44:12;;;;;;;24.90;12.73;;;;;;;21.39;63.22;99290.81;4994181;28;20037;-89
2022/05/14 08:46:38;;;;;;;34.15;11.90;;;;;;;21.46;62.00;99277.38;4974106;28;20039;-91
2022/05/14 08:52:30;;;;;;;24.23;14.37;;;;;;;21.61;62.12;99295.06;4974749;28;20586;-92
2022/05/14 08:55:04;;;;;;;28.08;14.27;;;;;;;21.69;61.67;99285.13;4958506;28;20031;-92
2022/05/14 08:57:44;;;;;;;36.55;20.85;;;;;;;21.84;63.18;99281.66;4957760;28;20508;-93
2022/05/14 09:00:15;;;;;;;30.65;16.23;;;;;;;21.87;63.99;99280.97;4990482;28;20081;-89
2022/05/14 09:02:47;;;;;;;34.08;14.07;;;;;;;22.14;62.19;99297.78;4957095;28;20413;-87
2022/05/14 09:05:26;;;;;;;22.40;13.95;;;;;;;22.22;61.69;99285.88;4972691;28;20030;-89
2022/05/14 09:07:52;;;;;;;21.55;13.75;;;;;;;22.12;61.67;99265.25;4973141;28;20458;-86
2022/05/14 09:10:40;;;;;;;18.42;10.23;;;;;;;22.31;61.95;99269.31;4956258;28;20162;-87
2022/05/14 09:13:08;;;;;;;12.75;8.50;;;;;;;22.45;61.49;99275.16;4956882;28;20035;-89
2022/05/14 09:15:34;;;;;;;10.75;7.90;;;;;;;22.50;60.68;99257.69;4988827;28;20027;-87
2022/05/14 09:18:27;;;;;;;12.45;8.75;;;;;;;22.54;59.33;99250.34;4995811;28;20030;-90
2022/05/14 09:21:04;;;;;;;16.10;7.78;;;;;;;22.64;60.50;99265.47;4993200;28;20093;-89
2022/05/14 09:23:41;;;;;;;15.45;7.32;;;;;;;22.69;60.54;99262.47;4960913;28;20468;-88
2022/05/14 09:26:26;;;;;;;15.15;8.48;;;;;;;22.74;60.78;99260.28;4978639;28;20157;-89
2022/05/14 09:28:56;;;;;;;22.85;9.27;;;;;;;22.88;60.13;99267.28;4994635;28;20504;-89
2022/05/14 09:31:27;;;;;;;13.52;7.82;;;;;;;22.98;59.87;99264.81;4976140;28;20026;-89
2022/05/14 09:34:10;;;;;;;12.45;7.68;;;;;;;23.13;57.99;99274.22;4992921;28;20034;-90
2022/05/14 09:36:37;;;;;;;9.02;6.70;;;;;;;23.10;56.11;99261.19;4959465;28;20475;-89
2022/05/14 09:39:07;;;;;;;10.57;6.80;;;;;;;23.20;56.75;99252.44;4958798;28;20022;-89
2022/05/14 09:41:48;;;;;;;14.55;6.50;;;;;;;23.43;56.68;99271.00;4975220;28;20088;-89
2022/05/14 09:44:16;;;;;;;18.83;6.07;;;;;;;23.42;56.72;99257.63;4958527;28;20492;-89
2022/05/14 09:46:42;;;;;;;7.97;5.70;;;;;;;23.39;55.94;99246.19;4974401;28;20041;-89
2022/05/14 09:49:10;;;;;;;9.15;6.60;;;;;;;23.57;55.77;99262.28;4974383;28;20109;-92
2022/05/14 09:51:44;;;;;;;13.77;7.65;;;;;;;23.55;55.96;99253.59;4993925;28;20022;-89
2022/05/14 09:54:18;;;;;;;10.77;7.93;;;;;;;23.55;56.02;99250.84;4993930;28;20030;-89
2022/05/14 09:56:57;;;;;;;9.38;5.93;;;;;;;23.77;55.93;99261.19;4977938;28;20026;-89
2022/05/14 09:59:32;;;;;;;10.05;6.25;;;;;;;23.78;56.56;99257.28;4976929;28;20421;-88
2022/05/14 10:01:58;;;;;;;10.40;6.22;;;;;;;23.96;55.48;99257.66;4992688;28;20022;-89
2022/05/14 10:04:49;;;;;;;11.25;6.53;;;;;;;24.07;55.59;99252.38;4976374;28;20065;-90
2022/05/14 10:07:23;;;;;;;12.60;6.78;;;;;;;23.92;55.21;99242.25;4991611;28;20100;-89
2022/05/14 10:10:10;;;;;;;17.77;7.40;;;;;;;24.19;56.10;99265.97;4977529;28;20026;-89
2022/05/14 10:12:56;;;;;;;19.73;9.55;;;;;;;24.31;54.04;99256.78;4976255;28;20504;-88
2022/05/14 10:15:26;;;;;;;13.18;7.03;;;;;;;24.39;53.62;99263.22;4992614;28;20026;-89
2022/05/14 10:18:12;;;;;;;13.95;7.05;;;;;;;24.52;53.13;99252.88;4993255;28;20042;-88
2022/05/14 10:20:48;;;;;;;9.00;6.78;;;;;;;24.47;55.90;99253.16;4991892;28;20053;-88
2022/05/14 10:26:48;;;;;;;9.75;5.78;;;;;;;24.73;50.13;99238.69;4993002;28;20085;-89
2022/05/14 10:29:22;;;;;;;7.85;5.30;;;;;;;24.85;49.65;99229.47;4990477;28;20464;-89
2022/05/14 10:32:00;;;;;;;11.57;5.47;;;;;;;25.06;49.73;99240.81;4991997;28;20022;-90
2022/05/14 10:34:34;;;;;;;10.18;5.60;;;;;;;25.09;51.15;99231.00;5008300;28;20026;-89
2022/05/14 10:37:02;;;;;;;13.20;6.15;;;;;;;25.24;51.83;99221.06;4991560;28;20018;-89
2022/05/14 10:39:38;;;;;;;12.13;6.07;;;;;;;25.20;50.87;99221.78;4991930;28;20133;-89
2022/05/14 10:42:12;;;;;;;9.52;5.45;;;;;;;25.45;50.42;99223.34;4991520;28;20129;-88
2022/05/14 10:44:45;;;;;;;4.88;4.32;;;;;;;25.58;49.50;99224.69;4991712;28;20029;-89
2022/05/14 10:47:11;;;;;;;8.40;3.47;;;;;;;25.61;46.59;99212.91;4975671;28;20031;-89
2022/05/14 10:49:43;;;;;;;5.38;3.60;;;;;;;25.78;46.04;99215.09;5007739;28;20033;-89
2022/05/14 10:52:15;;;;;;;4.43;3.30;;;;;;;25.84;44.38;99214.75;4991400;28;20026;-89
2022/05/14 10:54:41;;;;;;;9.57;4.13;;;;;;;26.00;47.20;99218.13;5007715;28;20022;-89
2022/05/14 10:57:13;;;;;;;8.38;4.05;;;;;;;26.06;46.24;99210.34;4975462;28;20022;-89
2022/05/14 10:59:40;;;;;;;;;;;;;;;26.11;45.19;99215.53;4993222;28;20034;-88
2022/05/14 11:02:27;;;;;;;6.20;3.38;;;;;;;26.05;44.60;99195.75;4975348;28;19913;-89
2022/05/14 11:04:52;;;;;;;6.40;3.40;;;;;;;26.13;44.46;99191.91;4991023;28;20138;-89
2022/05/14 11:07:39;;;;;;;4.95;3.20;;;;;;;26.22;43.94;99188.84;4991853;28;20388;-89
2022/05/14 11:10:12;;;;;;;6.35;3.05;;;;;;;26.36;41.32;99197.25;5007671;28;20085;-88
2022/05/14 11:12:38;;;;;;;8.05;2.80;;;;;;;26.37;41.04;99187.00;4991380;28;20034;-90
2022/05/14 11:15:17;;;;;;;3.20;2.50;;;;;;;26.42;38.81;99181.94;4991349;28;20046;-89
2022/05/14 11:17:43;;;;;;;4.88;2.55;;;;;;;26.47;37.56;99163.44;4992192;28;20035;-89
2022/05/14 11:20:10;;;;;;;6.60;2.65;;;;;;;26.51;37.86;99170.56;4995153;28;20034;-88
2022/05/14 11:22:46;;;;;;;6.25;2.90;;;;;;;26.68;36.72;99179.44;4994905;28;20050;-93
2022/05/14 11:25:19;;;;;;;6.78;2.95;;;;;;;26.72;36.78;99169.19;5011524;28;20139;-89
2022/05/14 11:28:27;;;;;;;5.95;3.00;;;;;;;26.84;36.26;99159.84;4995055;28;20045;-90
2022/05/14 11:31:08;;;;;;;6.07;2.72;;;;;;;26.77;36.61;99155.84;4995961;28;20408;-89
2022/05/14 11:33:34;;;;;;;6.38;2.63;;;;;;;26.98;36.12;99151.66;4981299;28;20030;-89
2022/05/14 11:36:01;;;;;;;5.05;2.17;;;;;;;27.09;35.74;99166.31;4962875;28;20034;-89
2022/05/14 11:38:27;;;;;;;5.07;2.60;;;;;;;27.09;35.30;99160.78;4978962;28;20038;-89
2022/05/14 11:41:03;;;;;;;4.85;2.55;;;;;;;27.12;35.48;99154.50;4996274;28;20105;-93
2022/05/14 11:43:44;;;;;;;5.65;2.63;;;;;;;27.23;35.90;99157.34;4981234;28;20034;-91
2022/05/14 11:46:24;;;;;;;11.52;2.78;;;;;;;27.32;35.71;99159.78;4997976;28;20477;-92
2022/05/14 11:48:58;;;;;;;11.30;2.97;;;;;;;27.42;36.01;99154.28;4982570;28;20034;-91
2022/05/14 11:51:35;;;;;;;6.22;2.40;;;;;;;27.51;33.85;99162.22;4981492;28;20096;-92
2022/05/14 11:54:10;;;;;;;3.50;2.28;;;;;;;27.20;33.61;99134.00;4996358;28;20035;-91
2022/05/14 11:56:37;;;;;;;4.47;2.40;;;;;;;27.28;35.22;99137.63;4980930;28;20453;-92
2022/05/14 11:59:07;;;;;;;4.35;2.53;;;;;;;27.41;36.56;99138.06;4996277;28;20026;-92
2022/05/14 12:01:38;;;;;;;6.50;2.50;;;;;;;27.49;34.96;99134.16;4963376;28;20128;-92
2022/05/14 12:04:10;;;;;;;5.32;2.47;;;;;;;27.50;34.77;99137.75;4979007;28;20504;-92
2022/05/14 12:06:41;;;;;;;7.05;2.60;;;;;;;27.51;34.50;99131.81;4962973;28;20490;-91
2022/05/14 12:09:28;;;;;;;2.90;2.30;;;;;;;27.68;34.05;99141.34;4994603;28;20026;-91